Bookmark and Share
Track history (hours):
 

Sarah Schulte

Last reported at 2014-Mar-17 20:08 UTC. Time now 2014-Apr-20 05:55 UTC.
Position N 35°04' W 011°49'.
Warning: this ship's position is 33 days out of date.

Length 222 m; draft 11.4 m.

Type: Ship. MMSI: 210409000.

NotesDate/timePositionNaut miles runAvg speedWind from/ knotsBaromVisibWave heightAir tempDewpointWater temp
2014-Mar-17 20:08N 35°04' W 011°49'30815.7
2014-Mar-17 00:29N 35°58' W 005°37'1313.6
2014-Mar-16 23:33N 36°01' W 005°21'23216.2
2014-Mar-16 09:12N 37°23' W 000°50'1117.2
2014-Mar-16 08:33N 37°30' W 000°40'1717.0
2014-Mar-16 07:33N 37°43' W 000°26'1717.1
2014-Mar-16 06:33N 37°57' W 000°14'1717.1
2014-Mar-16 05:33N 38°12' W 000°03'1716.8
2014-Mar-16 04:33N 38°26' E 000°09'1717.0
2014-Mar-16 03:33N 38°40' E 000°21'64 3.3
2014-Mar-15 08:09N 39°42' E 000°43'1320.5
2014-Mar-15 07:31N 39°52' E 000°54'2020.5
2014-Mar-15 06:33N 40°08' E 001°11'2121.3
2014-Mar-15 05:33N 40°24' E 001°28'2120.5
2014-Mar-15 04:33N 40°41' E 001°43'2120.7
2014-Mar-15 03:33N 40°59' E 001°57'2019.8
2014-Mar-15 02:33N 41°16' E 002°10'3 0.2
2014-Mar-14 13:27N 41°19' E 002°10'1010.7
2014-Mar-14 12:33N 41°15' E 002°22'4 3.5
2014-Mar-14 11:33N 41°14' E 002°26'1 1.1
2014-Mar-14 10:33N 41°15' E 002°28'3 3.1
2014-Mar-14 09:33N 41°17' E 002°31'1010.3
2014-Mar-14 08:32N 41°25' E 002°40'9 9.3
2014-Mar-14 07:31N 41°30' E 002°50'2311.6
2014-Mar-14 05:33N 41°43' E 003°16'1413.2
2014-Mar-14 04:28N 41°51' E 003°31'8013.5
2014-Mar-13 22:33N 42°53' E 004°39'1313.1
2014-Mar-13 21:33N 43°03' E 004°51'1312.6
2014-Mar-13 20:33N 43°13' E 005°01'1212.0
2014-Mar-13 19:33N 43°24' E 004°54'2 1.9
2014-Mar-13 18:30N 43°24' E 004°51'0 0.0
2014-Mar-13 17:33N 43°24' E 004°51'0 0.0
2014-Mar-13 16:32N 43°24' E 004°51'0 0.0
2014-Mar-13 15:32N 43°24' E 004°51'0 0.0
2014-Mar-13 14:31N 43°24' E 004°51'0 0.0
2014-Mar-13 13:31N 43°24' E 004°51'0 0.0
2014-Mar-13 12:31N 43°24' E 004°51'0 0.0
2014-Mar-13 11:30N 43°24' E 004°51'0 0.0
2014-Mar-13 10:33N 43°24' E 004°51'0 0.0
2014-Mar-13 09:32N 43°24' E 004°51'0 0.0
2014-Mar-13 08:29N 43°24' E 004°51'0 0.0
2014-Mar-13 07:31N 43°24' E 004°51'0 0.0
2014-Mar-13 06:28N 43°24' E 004°51'0 0.0
2014-Mar-13 05:31N 43°24' E 004°51'1 1.3
2014-Mar-13 04:33N 43°24' E 004°53'9 8.9
2014-Mar-13 03:33N 43°17' E 005°00'3919.0
2014-Mar-13 01:32N 42°55' E 005°44'2122.0
2014-Mar-13 00:33N 42°51' E 006°12'2120.9
2014-Mar-12 23:34N 42°56' E 006°40'2222.2
2014-Mar-12 22:33N 43°10' E 007°04'2222.1
2014-Mar-12 21:33N 43°23' E 007°28'2221.9
2014-Mar-12 20:33N 43°37' E 007°51'2222.0
2014-Mar-12 19:33N 43°51' E 008°15'2221.9
2014-Mar-12 18:33N 44°09' E 008°31'1918.6
2014-Mar-12 17:33N 44°25' E 008°45'1 1.4
2014-Mar-12 16:32N 44°25' E 008°47'0 0.0
2014-Mar-12 15:31N 44°25' E 008°47'0 0.0
2014-Mar-12 14:31N 44°25' E 008°47'0 0.0
2014-Mar-12 13:32N 44°25' E 008°47'0 0.0
2014-Mar-12 12:29N 44°25' E 008°47'0 0.0
2014-Mar-12 11:31N 44°25' E 008°47'0 0.0
2014-Mar-12 10:22N 44°25' E 008°47'0 0.0
2014-Mar-12 09:31N 44°25' E 008°47'0 0.0
2014-Mar-12 08:30N 44°25' E 008°47'0 0.0
2014-Mar-12 07:33N 44°25' E 008°47'0 0.0
2014-Mar-12 06:33N 44°25' E 008°47'0 0.0
2014-Mar-12 05:30N 44°25' E 008°47'0 0.0
2014-Mar-12 04:33N 44°25' E 008°47'0 0.0
2014-Mar-12 03:33N 44°25' E 008°47'0 0.0
2014-Mar-12 02:33N 44°25' E 008°47'0 0.0
2014-Mar-12 01:32N 44°25' E 008°47'0 0.0
2014-Mar-12 00:32N 44°25' E 008°47'0 0.0
2014-Mar-11 23:31N 44°25' E 008°47'0 0.0
2014-Mar-11 22:31N 44°25' E 008°47'0 0.0
2014-Mar-11 21:30N 44°25' E 008°47'0 0.0
2014-Mar-11 20:33N 44°25' E 008°47'0 0.0
2014-Mar-11 19:32N 44°25' E 008°47'0 0.0
2014-Mar-11 18:33N 44°25' E 008°47'4 4.4
2014-Mar-11 17:33N 44°22' E 008°43'2 1.8
2014-Mar-11 16:33N 44°20' E 008°44'4 3.6
2014-Mar-11 15:33N 44°18' E 008°48'10 9.7
2014-Mar-11 14:33N 44°12' E 008°58'10 9.9
2014-Mar-11 13:33N 44°05' E 009°08'1010.2
2014-Mar-11 12:33N 43°58' E 009°18'1010.4
2014-Mar-11 11:33N 43°51' E 009°29'1010.1
2014-Mar-11 10:33N 43°43' E 009°38'1110.7
2014-Mar-11 09:33N 43°35' E 009°48'1211.8
2014-Mar-11 08:33N 43°30' E 010°03'1111.0
2014-Mar-11 07:33N 43°33' E 010°18'1 1.0
2014-Mar-11 06:25N 43°34' E 010°18'0 0.0
2014-Mar-11 05:33N 43°34' E 010°18'0 0.0
2014-Mar-11 04:30N 43°34' E 010°18'0 0.0
2014-Mar-11 03:32N 43°34' E 010°18'0 0.0
2014-Mar-11 02:32N 43°34' E 010°18'0 0.0
2014-Mar-11 01:32N 43°34' E 010°18'0 0.0
2014-Mar-11 00:31N 43°34' E 010°18'0 0.0
2014-Mar-10 23:31N 43°34' E 010°18'0 0.0
2014-Mar-10 22:33N 43°34' E 010°18'0 0.0
2014-Mar-10 21:33N 43°34' E 010°18'0 0.0
2014-Mar-10 20:33N 43°34' E 010°18'0 0.0
2014-Mar-10 19:32N 43°34' E 010°18'0 0.0
2014-Mar-10 18:32N 43°34' E 010°18'0 0.0
2014-Mar-10 17:28N 43°34' E 010°18'0 0.0
2014-Mar-10 16:28N 43°34' E 010°18'0 0.0
2014-Mar-10 15:33N 43°34' E 010°18'0 0.0
2014-Mar-10 14:33N 43°34' E 010°18'0 0.0
2014-Mar-10 13:32N 43°34' E 010°18'0 0.0
2014-Mar-10 12:34N 43°34' E 010°18'2 1.7
2014-Mar-10 11:34N 43°33' E 010°17'6 6.3
2014-Mar-10 10:33N 43°29' E 010°11'1111.2
2014-Mar-10 09:34N 43°21' E 009°59'2120.3
2014-Mar-10 08:32N 43°05' E 009°41'2221.7
2014-Mar-10 07:32N 42°44' E 009°41'4721.6
2014-Mar-10 05:21N 41°57' E 009°48'17619.6
2014-Mar-09 20:20N 39°01' E 009°24'1519.0
2014-Mar-09 19:33N 39°08' E 009°07'5 5.5
2014-Mar-09 18:33N 39°13' E 009°04'0 0.0
2014-Mar-09 17:33N 39°13' E 009°04'0 0.0
2014-Mar-09 16:33N 39°13' E 009°04'0 0.0
2014-Mar-09 15:33N 39°13' E 009°04'0 0.0
2014-Mar-09 14:32N 39°13' E 009°04'0 0.0
2014-Mar-09 13:32N 39°13' E 009°04'0 0.0
2014-Mar-09 12:31N 39°13' E 009°04'0 0.0
2014-Mar-09 11:31N 39°13' E 009°04'0 0.0
2014-Mar-09 10:33N 39°13' E 009°04'0 0.0
2014-Mar-09 09:33N 39°13' E 009°04'0 0.0
2014-Mar-09 08:32N 39°13' E 009°04'0 0.0
2014-Mar-09 07:32N 39°13' E 009°04'0 0.0
2014-Mar-09 06:32N 39°13' E 009°04'0 0.0
2014-Mar-09 05:31N 39°13' E 009°04'0 0.0
2014-Mar-09 04:31N 39°13' E 009°04'0 0.0
2014-Mar-09 03:33N 39°13' E 009°04'0 0.0
2014-Mar-09 02:33N 39°13' E 009°04'0 0.0
2014-Mar-09 01:32N 39°13' E 009°04'0 0.0
2014-Mar-09 00:32N 39°13' E 009°04'0 0.0
2014-Mar-08 23:32N 39°13' E 009°04'4 3.9
2014-Mar-08 22:33N 39°09' E 009°06'2 2.3
2014-Mar-08 21:33N 39°07' E 009°06'811.6
2014-Mar-08 20:53N 38°59' E 009°06'412.0
2014-Mar-08 20:32N 38°55' E 009°05'1111.5
2014-Mar-08 19:33N 38°46' E 008°58'1312.7
2014-Mar-08 18:32N 38°41' E 008°42'1613.4
2014-Mar-08 17:20N 38°42' E 008°21'8414.2
2014-Mar-08 11:22N 38°47' E 006°33'1518.1
2014-Mar-08 10:33N 38°48' E 006°15'7317.8
2014-Mar-08 06:27N 38°53' E 004°41'3817.6
2014-Mar-08 04:18N 38°56' E 003°53'1618.3
2014-Mar-08 03:26N 38°58' E 003°33'1618.0
2014-Mar-08 02:33N 39°00' E 003°13'1817.9
2014-Mar-08 01:34N 39°03' E 002°50'1817.9
2014-Mar-08 00:33N 39°06' E 002°27'1818.0
2014-Mar-07 23:33N 39°08' E 002°04'1918.7
2014-Mar-07 22:33N 39°12' E 001°40'2117.4
2014-Mar-07 21:20N 39°15' E 001°13'1417.8
2014-Mar-07 20:33N 39°17' E 000°56'  

Dump ship's entire track history

sailing weather and tide predictions

Sarah Schulte — 5BPA3 — position and weather